sensor_id;sensor_type;location;lat;lon;timestamp;pressure;altitude;pressure_sealevel;temperature;humidity
54876;BME280;40764;48.472;8.166;2023-05-22T00:05:32;97861.31;;;13.69;100.00
54876;BME280;40764;48.472;8.166;2023-05-22T00:11:38;97855.50;;;13.71;100.00
54876;BME280;40764;48.472;8.166;2023-05-22T00:17:38;97848.88;;;13.54;100.00
54876;BME280;40764;48.472;8.166;2023-05-22T00:23:39;97851.63;;;13.54;100.00
54876;BME280;40764;48.472;8.166;2023-05-22T00:29:40;97854.19;;;13.51;100.00
54876;BME280;40764;48.472;8.166;2023-05-22T00:35:40;97850.97;;;13.31;100.00
54876;BME280;40764;48.472;8.166;2023-05-22T00:41:41;97857.59;;;13.39;100.00
54876;BME280;40764;48.472;8.166;2023-05-22T00:47:41;97863.09;;;13.30;100.00
54876;BME280;40764;48.472;8.166;2023-05-22T00:53:42;97855.47;;;13.19;100.00
54876;BME280;40764;48.472;8.166;2023-05-22T00:59:43;97862.25;;;13.21;100.00
54876;BME280;40764;48.472;8.166;2023-05-22T01:05:43;97862.22;;;13.13;100.00
54876;BME280;40764;48.472;8.166;2023-05-22T01:18:11;97871.25;;;13.13;100.00
54876;BME280;40764;48.472;8.166;2023-05-22T01:31:08;97875.75;;;13.09;100.00
54876;BME280;40764;48.472;8.166;2023-05-22T01:37:12;97876.03;;;12.99;100.00
54876;BME280;40764;48.472;8.166;2023-05-22T01:43:14;97888.50;;;13.05;100.00
54876;BME280;40764;48.472;8.166;2023-05-22T01:49:15;97885.56;;;12.93;100.00
54876;BME280;40764;48.472;8.166;2023-05-22T01:55:20;97880.06;;;12.93;100.00
54876;BME280;40764;48.472;8.166;2023-05-22T02:01:27;97896.41;;;13.07;100.00
54876;BME280;40764;48.472;8.166;2023-05-22T02:07:31;97873.44;;;12.94;100.00
54876;BME280;40764;48.472;8.166;2023-05-22T02:13:33;97887.63;;;12.87;100.00
54876;BME280;40764;48.472;8.166;2023-05-22T02:19:34;97888.03;;;12.72;100.00
54876;BME280;40764;48.472;8.166;2023-05-22T02:25:37;97886.16;;;12.81;100.00
54876;BME280;40764;48.472;8.166;2023-05-22T02:31:38;97889.06;;;12.76;100.00
54876;BME280;40764;48.472;8.166;2023-05-22T02:37:38;97886.56;;;12.57;100.00
54876;BME280;40764;48.472;8.166;2023-05-22T02:43:38;97886.41;;;12.62;100.00
54876;BME280;40764;48.472;8.166;2023-05-22T02:49:39;97883.00;;;12.57;100.00
54876;BME280;40764;48.472;8.166;2023-05-22T02:55:42;97889.19;;;12.40;100.00
54876;BME280;40764;48.472;8.166;2023-05-22T03:01:43;97886.84;;;12.47;100.00
54876;BME280;40764;48.472;8.166;2023-05-22T03:07:43;97893.88;;;12.39;100.00
54876;BME280;40764;48.472;8.166;2023-05-22T03:13:44;97887.25;;;12.40;100.00
54876;BME280;40764;48.472;8.166;2023-05-22T03:19:44;97892.72;;;12.32;100.00
54876;BME280;40764;48.472;8.166;2023-05-22T03:25:45;97887.69;;;12.25;100.00
54876;BME280;40764;48.472;8.166;2023-05-22T03:31:49;97901.38;;;12.25;100.00
54876;BME280;40764;48.472;8.166;2023-05-22T03:37:49;97899.00;;;12.32;100.00
54876;BME280;40764;48.472;8.166;2023-05-22T03:43:50;97891.31;;;12.43;100.00
54876;BME280;40764;48.472;8.166;2023-05-22T03:49:50;97891.22;;;12.26;100.00
54876;BME280;40764;48.472;8.166;2023-05-22T03:55:50;97888.00;;;12.24;100.00
54876;BME280;40764;48.472;8.166;2023-05-22T04:01:51;97893.38;;;12.37;100.00
54876;BME280;40764;48.472;8.166;2023-05-22T04:07:51;97895.97;;;12.43;100.00
54876;BME280;40764;48.472;8.166;2023-05-22T04:13:51;97885.16;;;12.37;100.00
54876;BME280;40764;48.472;8.166;2023-05-22T04:19:55;97886.19;;;12.50;100.00
54876;BME280;40764;48.472;8.166;2023-05-22T04:25:57;97881.22;;;12.52;100.00
54876;BME280;40764;48.472;8.166;2023-05-22T04:32:01;97891.50;;;12.47;100.00
54876;BME280;40764;48.472;8.166;2023-05-22T04:38:01;97896.56;;;12.62;100.00
54876;BME280;40764;48.472;8.166;2023-05-22T04:44:02;97897.94;;;12.73;100.00
54876;BME280;40764;48.472;8.166;2023-05-22T04:50:03;97900.69;;;12.82;100.00
54876;BME280;40764;48.472;8.166;2023-05-22T04:56:04;97902.94;;;12.80;100.00
54876;BME280;40764;48.472;8.166;2023-05-22T05:02:05;97898.34;;;13.06;100.00
54876;BME280;40764;48.472;8.166;2023-05-22T05:08:05;97902.06;;;13.10;100.00
54876;BME280;40764;48.472;8.166;2023-05-22T05:14:06;97903.31;;;13.35;100.00
54876;BME280;40764;48.472;8.166;2023-05-22T05:20:06;97902.34;;;13.48;100.00
54876;BME280;40764;48.472;8.166;2023-05-22T05:26:07;97902.66;;;13.47;100.00
54876;BME280;40764;48.472;8.166;2023-05-22T05:32:07;97899.44;;;13.53;100.00
54876;BME280;40764;48.472;8.166;2023-05-22T05:38:08;97899.63;;;13.66;100.00
54876;BME280;40764;48.472;8.166;2023-05-22T05:44:09;97904.47;;;13.77;100.00
54876;BME280;40764;48.472;8.166;2023-05-22T05:50:09;97899.59;;;14.00;100.00
54876;BME280;40764;48.472;8.166;2023-05-22T05:56:10;97911.06;;;14.19;100.00
54876;BME280;40764;48.472;8.166;2023-05-22T06:02:10;97912.16;;;14.44;100.00
54876;BME280;40764;48.472;8.166;2023-05-22T06:08:11;97916.88;;;14.91;100.00
54876;BME280;40764;48.472;8.166;2023-05-22T06:14:12;97915.41;;;15.52;100.00
54876;BME280;40764;48.472;8.166;2023-05-22T06:20:13;97921.38;;;15.84;100.00
54876;BME280;40764;48.472;8.166;2023-05-22T06:26:14;97910.69;;;16.03;100.00
54876;BME280;40764;48.472;8.166;2023-05-22T06:32:15;97923.31;;;16.37;100.00
54876;BME280;40764;48.472;8.166;2023-05-22T06:38:16;97920.97;;;16.60;100.00
54876;BME280;40764;48.472;8.166;2023-05-22T06:44:16;97916.78;;;16.75;100.00
54876;BME280;40764;48.472;8.166;2023-05-22T06:50:16;97925.81;;;17.08;100.00
54876;BME280;40764;48.472;8.166;2023-05-22T06:56:17;97915.44;;;17.29;100.00
54876;BME280;40764;48.472;8.166;2023-05-22T07:02:18;97920.25;;;17.57;100.00
54876;BME280;40764;48.472;8.166;2023-05-22T07:08:18;97913.31;;;17.87;100.00
54876;BME280;40764;48.472;8.166;2023-05-22T07:14:18;97920.00;;;17.86;100.00
54876;BME280;40764;48.472;8.166;2023-05-22T07:20:19;97917.91;;;17.95;100.00
54876;BME280;40764;48.472;8.166;2023-05-22T07:26:19;97923.19;;;18.01;100.00
54876;BME280;40764;48.472;8.166;2023-05-22T07:32:21;97926.66;;;17.98;100.00
54876;BME280;40764;48.472;8.166;2023-05-22T07:38:21;97927.84;;;18.12;100.00
54876;BME280;40764;48.472;8.166;2023-05-22T07:44:22;97927.84;;;18.24;100.00
54876;BME280;40764;48.472;8.166;2023-05-22T07:50:22;97930.53;;;18.37;100.00
54876;BME280;40764;48.472;8.166;2023-05-22T07:56:25;97937.84;;;18.29;100.00
54876;BME280;40764;48.472;8.166;2023-05-22T08:02:26;97939.72;;;18.41;100.00
54876;BME280;40764;48.472;8.166;2023-05-22T08:08:26;97941.84;;;18.60;100.00
54876;BME280;40764;48.472;8.166;2023-05-22T08:14:27;97936.22;;;18.56;100.00
54876;BME280;40764;48.472;8.166;2023-05-22T08:20:28;97934.91;;;18.66;100.00
54876;BME280;40764;48.472;8.166;2023-05-22T08:26:28;97939.91;;;18.76;100.00
54876;BME280;40764;48.472;8.166;2023-05-22T08:32:28;97928.88;;;18.92;100.00
54876;BME280;40764;48.472;8.166;2023-05-22T08:38:29;97930.28;;;19.33;97.92
54876;BME280;40764;48.472;8.166;2023-05-22T08:44:29;97923.41;;;19.58;96.50
54876;BME280;40764;48.472;8.166;2023-05-22T08:50:30;97923.53;;;19.81;96.22
54876;BME280;40764;48.472;8.166;2023-05-22T08:56:31;97926.84;;;20.25;91.67
54876;BME280;40764;48.472;8.166;2023-05-22T09:02:32;97918.50;;;20.64;86.65
54876;BME280;40764;48.472;8.166;2023-05-22T09:08:32;97921.78;;;20.69;79.25
54876;BME280;40764;48.472;8.166;2023-05-22T09:14:43;97915.00;;;20.67;76.75
54876;BME280;40764;48.472;8.166;2023-05-22T09:20:43;97910.56;;;20.85;79.03
54876;BME280;40764;48.472;8.166;2023-05-22T09:26:44;97909.16;;;21.18;81.11
54876;BME280;40764;48.472;8.166;2023-05-22T09:32:47;97911.56;;;21.42;78.01
54876;BME280;40764;48.472;8.166;2023-05-22T09:38:47;97902.66;;;21.59;79.40
54876;BME280;40764;48.472;8.166;2023-05-22T09:44:48;97902.09;;;21.73;81.24
54876;BME280;40764;48.472;8.166;2023-05-22T09:51:21;97901.03;;;21.85;79.74
54876;BME280;40764;48.472;8.166;2023-05-22T09:57:26;97878.53;;;21.97;77.91
54876;BME280;40764;48.472;8.166;2023-05-22T10:03:38;97891.13;;;22.14;78.73
54876;BME280;40764;48.472;8.166;2023-05-22T10:09:40;97875.47;;;22.36;77.86
54876;BME280;40764;48.472;8.166;2023-05-22T10:15:41;97877.47;;;22.76;76.91
54876;BME280;40764;48.472;8.166;2023-05-22T10:21:44;97871.75;;;22.99;74.55
54876;BME280;40764;48.472;8.166;2023-05-22T10:27:47;97861.13;;;23.15;72.32
54876;BME280;40764;48.472;8.166;2023-05-22T10:33:48;97848.53;;;23.35;71.34
54876;BME280;40764;48.472;8.166;2023-05-22T10:46:05;97841.94;;;23.58;66.47
54876;BME280;40764;48.472;8.166;2023-05-22T10:52:15;97840.34;;;23.60;65.34
54876;BME280;40764;48.472;8.166;2023-05-22T10:58:28;97828.09;;;23.79;65.94
54876;BME280;40764;48.472;8.166;2023-05-22T11:04:29;97817.00;;;23.97;63.91
54876;BME280;40764;48.472;8.166;2023-05-22T11:16:58;97819.53;;;23.51;61.42
54876;BME280;40764;48.472;8.166;2023-05-22T11:23:00;97815.78;;;23.22;62.54
54876;BME280;40764;48.472;8.166;2023-05-22T11:29:05;97813.81;;;23.26;62.69
54876;BME280;40764;48.472;8.166;2023-05-22T11:35:06;97835.19;;;23.66;62.72
54876;BME280;40764;48.472;8.166;2023-05-22T11:41:10;97821.81;;;24.00;59.95
54876;BME280;40764;48.472;8.166;2023-05-22T11:47:12;97823.56;;;24.44;57.27
54876;BME280;40764;48.472;8.166;2023-05-22T11:53:12;97823.56;;;24.40;55.38
54876;BME280;40764;48.472;8.166;2023-05-22T11:59:13;97842.94;;;24.01;57.65
54876;BME280;40764;48.472;8.166;2023-05-22T12:05:13;97836.47;;;23.83;56.33
54876;BME280;40764;48.472;8.166;2023-05-22T12:11:15;97850.00;;;23.77;59.31
54876;BME280;40764;48.472;8.166;2023-05-22T12:17:16;97857.50;;;23.62;62.46
54876;BME280;40764;48.472;8.166;2023-05-22T12:23:35;97850.88;;;23.30;66.12
54876;BME280;40764;48.472;8.166;2023-05-22T12:29:37;97846.88;;;23.27;77.88
54876;BME280;40764;48.472;8.166;2023-05-22T12:35:37;97840.84;;;22.74;86.14
54876;BME280;40764;48.472;8.166;2023-05-22T12:41:38;97854.41;;;22.79;92.76
54876;BME280;40764;48.472;8.166;2023-05-22T12:47:40;97858.69;;;23.65;91.52
54876;BME280;40764;48.472;8.166;2023-05-22T12:53:41;97869.28;;;24.07;83.35
54876;BME280;40764;48.472;8.166;2023-05-22T12:59:56;97867.63;;;23.33;76.72
54876;BME280;40764;48.472;8.166;2023-05-22T13:05:56;97855.09;;;23.09;78.38
54876;BME280;40764;48.472;8.166;2023-05-22T13:11:56;97861.84;;;22.64;81.45
54876;BME280;40764;48.472;8.166;2023-05-22T13:17:57;97862.06;;;22.48;82.61
54876;BME280;40764;48.472;8.166;2023-05-22T13:23:57;97865.88;;;22.00;82.60
54876;BME280;40764;48.472;8.166;2023-05-22T13:29:58;97867.41;;;21.97;84.85
54876;BME280;40764;48.472;8.166;2023-05-22T13:36:02;97875.28;;;21.61;88.48
54876;BME280;40764;48.472;8.166;2023-05-22T13:42:03;97872.44;;;21.58;90.13
54876;BME280;40764;48.472;8.166;2023-05-22T13:48:03;97867.53;;;20.98;92.25
54876;BME280;40764;48.472;8.166;2023-05-22T13:54:04;97861.06;;;20.91;94.80
54876;BME280;40764;48.472;8.166;2023-05-22T14:00:05;97860.69;;;20.69;94.36
54876;BME280;40764;48.472;8.166;2023-05-22T14:06:06;97865.44;;;20.69;96.87
54876;BME280;40764;48.472;8.166;2023-05-22T14:12:06;97867.69;;;20.83;94.94
54876;BME280;40764;48.472;8.166;2023-05-22T14:18:07;97866.84;;;21.05;95.23
54876;BME280;40764;48.472;8.166;2023-05-22T14:24:07;97863.25;;;21.04;95.26
54876;BME280;40764;48.472;8.166;2023-05-22T14:30:07;97868.97;;;21.12;95.21
54876;BME280;40764;48.472;8.166;2023-05-22T14:36:12;97869.25;;;21.29;95.28
54876;BME280;40764;48.472;8.166;2023-05-22T14:42:12;97871.22;;;21.29;91.43
54876;BME280;40764;48.472;8.166;2023-05-22T14:48:13;97862.56;;;21.90;92.35
54876;BME280;40764;48.472;8.166;2023-05-22T14:54:16;97833.53;;;22.99;88.45
54876;BME280;40764;48.472;8.166;2023-05-22T15:00:19;97821.94;;;24.32;78.58
54876;BME280;40764;48.472;8.166;2023-05-22T15:06:19;97820.00;;;24.86;74.55
54876;BME280;40764;48.472;8.166;2023-05-22T15:12:20;97824.41;;;24.58;72.29
54876;BME280;40764;48.472;8.166;2023-05-22T15:18:21;97829.22;;;25.00;71.75
54876;BME280;40764;48.472;8.166;2023-05-22T15:24:21;97813.94;;;25.62;69.38
54876;BME280;40764;48.472;8.166;2023-05-22T15:30:22;97809.00;;;26.12;67.16
54876;BME280;40764;48.472;8.166;2023-05-22T15:36:22;97806.00;;;25.46;68.72
54876;BME280;40764;48.472;8.166;2023-05-22T15:42:27;97797.50;;;24.04;77.95
54876;BME280;40764;48.472;8.166;2023-05-22T15:48:28;97795.13;;;23.33;80.04
54876;BME280;40764;48.472;8.166;2023-05-22T15:54:35;97800.59;;;23.15;79.78
54876;BME280;40764;48.472;8.166;2023-05-22T16:00:35;97817.56;;;22.93;81.94
54876;BME280;40764;48.472;8.166;2023-05-22T16:06:40;97845.19;;;22.71;87.50
54876;BME280;40764;48.472;8.166;2023-05-22T16:12:40;97846.78;;;22.32;91.78
54876;BME280;40764;48.472;8.166;2023-05-22T16:18:40;97841.13;;;22.24;96.49
54876;BME280;40764;48.472;8.166;2023-05-22T16:24:41;97846.56;;;22.14;100.00
54876;BME280;40764;48.472;8.166;2023-05-22T16:30:41;97847.50;;;22.25;90.72
54876;BME280;40764;48.472;8.166;2023-05-22T16:36:42;97842.06;;;22.36;73.90
54876;BME280;40764;48.472;8.166;2023-05-22T16:42:43;97838.66;;;22.16;85.97
54876;BME280;40764;48.472;8.166;2023-05-22T16:48:43;97835.84;;;21.82;89.34
54876;BME280;40764;48.472;8.166;2023-05-22T16:54:47;97837.69;;;21.71;91.99
54876;BME280;40764;48.472;8.166;2023-05-22T17:00:47;97832.69;;;21.04;91.21
54876;BME280;40764;48.472;8.166;2023-05-22T17:06:47;97841.88;;;21.09;90.79
54876;BME280;40764;48.472;8.166;2023-05-22T17:12:49;97854.97;;;21.08;92.37
54876;BME280;40764;48.472;8.166;2023-05-22T17:18:49;97860.50;;;20.59;92.16
54876;BME280;40764;48.472;8.166;2023-05-22T17:24:51;97864.81;;;20.37;94.29
54876;BME280;40764;48.472;8.166;2023-05-22T17:30:51;97874.78;;;19.99;96.09
54876;BME280;40764;48.472;8.166;2023-05-22T17:36:53;97880.09;;;19.89;99.15
54876;BME280;40764;48.472;8.166;2023-05-22T17:42:53;97887.00;;;19.60;98.23
54876;BME280;40764;48.472;8.166;2023-05-22T17:48:53;97902.13;;;19.31;100.00
54876;BME280;40764;48.472;8.166;2023-05-22T17:54:55;97897.84;;;19.33;100.00
54876;BME280;40764;48.472;8.166;2023-05-22T18:00:55;97910.63;;;19.38;98.68
54876;BME280;40764;48.472;8.166;2023-05-22T18:06:56;97897.25;;;19.08;100.00
54876;BME280;40764;48.472;8.166;2023-05-22T18:12:57;97886.34;;;19.00;100.00
54876;BME280;40764;48.472;8.166;2023-05-22T18:18:57;97895.00;;;18.67;100.00
54876;BME280;40764;48.472;8.166;2023-05-22T18:24:58;97888.84;;;18.89;100.00
54876;BME280;40764;48.472;8.166;2023-05-22T18:30:59;97891.22;;;18.59;100.00
54876;BME280;40764;48.472;8.166;2023-05-22T18:37:00;97896.97;;;18.66;100.00
54876;BME280;40764;48.472;8.166;2023-05-22T18:43:01;97899.72;;;18.22;100.00
54876;BME280;40764;48.472;8.166;2023-05-22T18:49:02;97917.56;;;17.97;100.00
54876;BME280;40764;48.472;8.166;2023-05-22T18:55:03;97917.16;;;17.71;100.00
54876;BME280;40764;48.472;8.166;2023-05-22T19:01:04;97923.00;;;17.57;100.00
54876;BME280;40764;48.472;8.166;2023-05-22T19:07:04;97927.66;;;17.41;100.00
54876;BME280;40764;48.472;8.166;2023-05-22T19:13:04;97937.78;;;17.24;100.00
54876;BME280;40764;48.472;8.166;2023-05-22T19:19:05;97931.22;;;17.17;100.00
54876;BME280;40764;48.472;8.166;2023-05-22T19:25:10;97942.38;;;17.08;100.00
54876;BME280;40764;48.472;8.166;2023-05-22T19:31:11;97951.91;;;16.86;100.00
54876;BME280;40764;48.472;8.166;2023-05-22T19:37:16;97984.22;;;16.86;100.00
54876;BME280;40764;48.472;8.166;2023-05-22T19:43:17;97985.78;;;16.75;100.00
54876;BME280;40764;48.472;8.166;2023-05-22T19:49:19;97992.03;;;16.30;100.00
54876;BME280;40764;48.472;8.166;2023-05-22T19:55:19;97995.38;;;16.35;100.00
54876;BME280;40764;48.472;8.166;2023-05-22T20:01:25;98001.91;;;16.31;100.00
54876;BME280;40764;48.472;8.166;2023-05-22T20:07:26;98005.91;;;16.21;100.00
54876;BME280;40764;48.472;8.166;2023-05-22T20:13:38;98002.84;;;16.14;100.00
54876;BME280;40764;48.472;8.166;2023-05-22T20:19:39;98007.09;;;15.91;100.00
54876;BME280;40764;48.472;8.166;2023-05-22T20:25:44;98007.09;;;15.91;100.00
54876;BME280;40764;48.472;8.166;2023-05-22T20:31:46;98007.00;;;15.78;100.00
54876;BME280;40764;48.472;8.166;2023-05-22T20:37:46;98011.47;;;15.92;100.00
54876;BME280;40764;48.472;8.166;2023-05-22T20:43:47;98025.00;;;15.76;100.00
54876;BME280;40764;48.472;8.166;2023-05-22T20:49:47;98036.28;;;15.62;100.00
54876;BME280;40764;48.472;8.166;2023-05-22T20:55:48;98043.56;;;15.58;100.00
54876;BME280;40764;48.472;8.166;2023-05-22T21:01:48;98047.47;;;15.48;100.00
54876;BME280;40764;48.472;8.166;2023-05-22T21:07:48;98040.53;;;15.42;100.00
54876;BME280;40764;48.472;8.166;2023-05-22T21:13:49;98055.31;;;15.29;100.00
54876;BME280;40764;48.472;8.166;2023-05-22T21:19:59;98054.56;;;15.20;100.00
54876;BME280;40764;48.472;8.166;2023-05-22T21:26:01;98052.94;;;15.19;100.00
54876;BME280;40764;48.472;8.166;2023-05-22T21:32:01;98065.41;;;15.16;100.00
54876;BME280;40764;48.472;8.166;2023-05-22T21:38:01;98070.97;;;14.91;100.00
54876;BME280;40764;48.472;8.166;2023-05-22T21:44:02;98063.88;;;14.90;100.00
54876;BME280;40764;48.472;8.166;2023-05-22T21:50:04;98071.50;;;14.84;100.00
54876;BME280;40764;48.472;8.166;2023-05-22T21:56:05;98077.94;;;14.88;100.00
54876;BME280;40764;48.472;8.166;2023-05-22T22:02:05;98097.22;;;14.79;100.00
54876;BME280;40764;48.472;8.166;2023-05-22T22:08:06;98095.28;;;14.80;100.00
54876;BME280;40764;48.472;8.166;2023-05-22T22:14:06;98100.97;;;14.75;100.00
54876;BME280;40764;48.472;8.166;2023-05-22T22:20:07;98109.53;;;14.56;100.00
54876;BME280;40764;48.472;8.166;2023-05-22T22:26:07;98094.00;;;14.60;100.00
54876;BME280;40764;48.472;8.166;2023-05-22T22:32:08;98109.53;;;14.47;100.00
54876;BME280;40764;48.472;8.166;2023-05-22T22:38:09;98101.88;;;14.36;100.00
54876;BME280;40764;48.472;8.166;2023-05-22T22:44:09;98100.59;;;14.42;100.00
54876;BME280;40764;48.472;8.166;2023-05-22T22:50:10;98120.03;;;14.45;100.00
54876;BME280;40764;48.472;8.166;2023-05-22T22:56:11;98116.59;;;14.40;100.00
54876;BME280;40764;48.472;8.166;2023-05-22T23:02:11;98124.03;;;14.39;100.00
54876;BME280;40764;48.472;8.166;2023-05-22T23:08:12;98130.50;;;14.35;100.00
54876;BME280;40764;48.472;8.166;2023-05-22T23:14:12;98119.34;;;14.31;100.00
54876;BME280;40764;48.472;8.166;2023-05-22T23:20:14;98117.03;;;14.16;100.00
54876;BME280;40764;48.472;8.166;2023-05-22T23:26:14;98114.16;;;14.21;100.00
54876;BME280;40764;48.472;8.166;2023-05-22T23:32:14;98121.44;;;14.17;100.00
54876;BME280;40764;48.472;8.166;2023-05-22T23:38:15;98121.72;;;13.98;100.00
54876;BME280;40764;48.472;8.166;2023-05-22T23:44:15;98123.47;;;13.94;100.00
54876;BME280;40764;48.472;8.166;2023-05-22T23:50:16;98131.56;;;13.99;100.00
54876;BME280;40764;48.472;8.166;2023-05-22T23:56:17;98123.97;;;13.96;100.00
